createdAt,value
2022-08-19T00:03:37.331Z,12.67
2022-08-19T00:08:35.330Z,14.73
2022-08-19T00:13:33.791Z,12.93
2022-08-19T00:18:32.882Z,11.80
2022-08-19T00:23:35.097Z,13.30
2022-08-19T00:28:33.847Z,12.70
2022-08-19T00:33:34.572Z,14.00
2022-08-19T00:38:37.353Z,12.47
2022-08-19T00:43:36.266Z,13.20
2022-08-19T00:48:34.914Z,15.67
2022-08-19T00:53:35.433Z,12.60
2022-08-19T00:58:36.540Z,11.10
2022-08-19T01:03:56.882Z,13.33
2022-08-19T01:08:53.886Z,11.17
2022-08-19T01:13:54.092Z,13.40
2022-08-19T01:18:52.468Z,11.83
2022-08-19T01:23:52.248Z,12.80
2022-08-19T01:28:53.099Z,12.83
2022-08-19T01:33:53.316Z,12.10
2022-08-19T01:38:54.737Z,13.53
2022-08-19T01:44:13.447Z,12.53
2022-08-19T01:49:13.279Z,15.43
2022-08-19T01:54:23.464Z,15.53
2022-08-19T01:59:26.638Z,13.73
2022-08-19T02:04:26.419Z,13.37
2022-08-19T02:09:25.812Z,13.63
2022-08-19T02:14:23.988Z,14.30
2022-08-19T02:19:21.979Z,13.17
2022-08-19T02:24:19.943Z,13.63
2022-08-19T02:29:19.419Z,10.60
2022-08-19T02:34:17.715Z,12.87
2022-08-19T02:39:15.769Z,10.80
2022-08-19T02:44:26.749Z,11.07
2022-08-19T02:49:34.607Z,11.70
2022-08-19T02:54:32.897Z,12.30
2022-08-19T02:59:32.761Z,13.33
2022-08-19T03:04:32.241Z,13.60
2022-08-19T03:09:31.113Z,13.37
2022-08-19T03:14:32.052Z,11.50
2022-08-19T03:19:32.395Z,12.23
2022-08-19T03:24:31.599Z,13.63
2022-08-19T03:29:32.573Z,13.20
2022-08-19T03:34:35.117Z,12.47
2022-08-19T03:39:33.337Z,13.40
2022-08-19T03:44:33.334Z,14.13
2022-08-19T03:49:36.063Z,13.67
2022-08-19T03:54:35.012Z,13.10
2022-08-19T03:59:36.264Z,14.27
2022-08-19T04:04:35.735Z,13.90
2022-08-19T04:09:37.169Z,12.87
2022-08-19T04:14:36.272Z,15.03
2022-08-19T04:19:36.971Z,12.23
2022-08-19T04:24:36.194Z,12.93
2022-08-19T04:29:35.087Z,12.13
2022-08-19T04:34:33.106Z,12.37
2022-08-19T04:39:50.758Z,10.93
2022-08-19T04:44:48.783Z,11.47
2022-08-19T04:49:47.139Z,11.97
2022-08-19T04:54:46.543Z,13.30
2022-08-19T04:59:45.195Z,12.17
2022-08-19T05:04:43.339Z,12.20
2022-08-19T05:09:58.170Z,11.43
2022-08-19T05:14:59.275Z,10.70
2022-08-19T05:20:15.116Z,11.20
2022-08-19T05:25:16.337Z,12.70
2022-08-19T05:30:15.912Z,10.30
2022-08-19T05:35:14.004Z,12.00
2022-08-19T05:40:13.038Z,13.00
2022-08-19T05:45:12.294Z,13.00
2022-08-19T05:50:13.142Z,12.23
2022-08-19T05:55:11.449Z,13.13
2022-08-19T06:00:11.823Z,12.97
2022-08-19T06:05:12.634Z,14.90
2022-08-19T06:10:12.968Z,11.50
2022-08-19T06:15:13.611Z,13.07
2022-08-19T06:20:16.006Z,14.57
2022-08-19T06:25:15.144Z,13.77
2022-08-19T06:30:14.461Z,13.93
2022-08-19T06:35:15.552Z,13.20
2022-08-19T06:40:14.521Z,13.47
2022-08-19T06:45:12.584Z,14.23
2022-08-19T06:50:10.887Z,14.33
2022-08-19T06:55:10.968Z,12.20
2022-08-19T07:00:13.019Z,13.77
2022-08-19T07:05:11.433Z,13.03
2022-08-19T07:10:13.248Z,14.13
2022-08-19T07:15:12.402Z,14.93
2022-08-19T07:20:11.070Z,15.27
2022-08-19T07:25:10.614Z,14.70
2022-08-19T07:30:14.320Z,15.77
2022-08-19T07:35:12.297Z,17.43
2022-08-19T07:40:10.968Z,18.23
2022-08-19T07:45:11.436Z,13.67
2022-08-19T07:50:12.097Z,16.43
2022-08-19T07:55:39.940Z,17.33
2022-08-19T08:00:31.377Z,15.47
2022-08-19T08:05:46.949Z,16.40
2022-08-19T08:10:53.067Z,15.40
2022-08-19T08:15:56.602Z,17.73
2022-08-19T08:20:54.744Z,17.10
2022-08-19T08:25:53.416Z,18.30
2022-08-19T08:30:52.813Z,16.17
2022-08-19T08:35:53.778Z,17.43
2022-08-19T08:40:57.390Z,18.47
2022-08-19T08:46:01.224Z,18.53
2022-08-19T08:51:02.948Z,19.40
2022-08-19T08:56:06.607Z,26.53
2022-08-19T09:01:04.779Z,20.10
2022-08-19T09:06:12.034Z,19.27
2022-08-19T09:11:14.532Z,17.90
2022-08-19T09:16:32.714Z,18.53
2022-08-19T09:21:34.232Z,18.47
2022-08-19T09:26:47.572Z,16.40
2022-08-19T09:31:50.866Z,18.37
2022-08-19T09:36:54.579Z,17.53
2022-08-19T09:41:53.961Z,16.87
2022-08-19T09:46:52.244Z,16.00
2022-08-19T09:51:57.120Z,15.30
2022-08-19T09:56:55.322Z,17.97
2022-08-19T10:01:53.412Z,15.93
2022-08-19T10:06:53.745Z,16.90
2022-08-19T10:11:54.893Z,16.07
2022-08-19T10:16:53.190Z,16.60
2022-08-19T10:21:52.508Z,15.17
2022-08-19T10:26:55.968Z,15.60
2022-08-19T10:32:01.314Z,15.23
2022-08-19T10:37:02.634Z,15.90
2022-08-19T10:42:00.964Z,15.93
2022-08-19T10:46:59.908Z,14.23
2022-08-19T10:52:20.734Z,14.97
2022-08-19T10:57:27.928Z,15.40
2022-08-19T11:02:35.210Z,14.93
2022-08-19T11:07:33.203Z,14.97
2022-08-19T11:12:33.422Z,14.40
2022-08-19T11:17:32.462Z,14.80
2022-08-19T11:22:35.354Z,14.87
2022-08-19T11:27:43.682Z,18.20
2022-08-19T11:32:45.867Z,15.20
2022-08-19T11:37:46.855Z,12.57
2022-08-19T11:42:58.321Z,13.50
2022-08-19T11:47:56.937Z,12.40
2022-08-19T11:52:57.164Z,14.30
2022-08-19T11:57:56.577Z,12.50
2022-08-19T12:02:55.800Z,10.67
2022-08-19T12:07:55.428Z,11.47
2022-08-19T12:12:58.562Z,10.63
2022-08-19T12:17:59.545Z,11.40
2022-08-19T12:22:57.857Z,11.30
2022-08-19T12:27:57.511Z,11.10
2022-08-19T12:32:55.984Z,10.23
2022-08-19T12:37:57.811Z,10.07
2022-08-19T12:42:56.276Z,9.10
2022-08-19T12:47:55.330Z,10.40
2022-08-19T12:52:53.650Z,9.43
2022-08-19T12:57:53.427Z,9.73
2022-08-19T13:02:54.231Z,9.23
2022-08-19T13:07:56.550Z,10.20
2022-08-19T13:12:56.631Z,9.93
2022-08-19T13:17:57.651Z,9.47
2022-08-19T13:22:58.102Z,10.57
2022-08-19T13:27:57.558Z,10.70
2022-08-19T13:33:15.969Z,9.83
2022-08-19T13:38:16.387Z,10.70
2022-08-19T13:43:17.841Z,12.90
2022-08-19T13:48:21.261Z,12.70
2022-08-19T13:53:19.715Z,11.00
2022-08-19T13:58:19.113Z,11.30
2022-08-19T14:03:17.332Z,14.20
2022-08-19T14:08:15.435Z,10.87
2022-08-19T14:13:16.800Z,11.70
2022-08-19T14:18:16.790Z,13.73
2022-08-19T14:23:14.991Z,11.17
2022-08-19T14:28:13.033Z,11.30
2022-08-19T14:33:11.130Z,12.10
2022-08-19T14:38:18.270Z,12.63
2022-08-19T14:43:23.078Z,12.00
2022-08-19T14:48:22.426Z,11.20
2022-08-19T14:53:28.569Z,11.00
2022-08-19T14:58:29.501Z,10.40
2022-08-19T15:03:28.379Z,11.17
2022-08-19T15:08:28.930Z,11.90
2022-08-19T15:13:29.950Z,10.47
2022-08-19T15:18:28.047Z,12.47
2022-08-19T15:23:26.072Z,11.20
2022-08-19T15:28:27.006Z,17.33
2022-08-19T15:33:25.057Z,13.70
2022-08-19T15:38:23.797Z,12.57
2022-08-19T15:43:23.191Z,12.53
2022-08-19T15:48:22.550Z,12.10
2022-08-19T15:53:21.001Z,12.50
2022-08-19T15:58:36.534Z,14.33
2022-08-19T16:03:53.475Z,10.33
2022-08-19T16:08:51.603Z,9.80
2022-08-19T16:13:51.716Z,10.10
2022-08-19T16:18:53.582Z,8.73
2022-08-19T16:23:51.732Z,10.00
2022-08-19T16:28:49.820Z,9.37
2022-08-19T16:33:51.543Z,9.70
2022-08-19T16:38:49.598Z,8.27
2022-08-19T16:43:49.290Z,7.93
2022-08-19T16:48:47.733Z,6.77
2022-08-19T16:53:47.199Z,6.43
2022-08-19T16:58:45.297Z,6.40
2022-08-19T17:03:43.430Z,6.87
2022-08-19T17:08:44.660Z,5.97
2022-08-19T17:13:47.635Z,6.63
2022-08-19T17:18:45.979Z,6.40
2022-08-19T17:23:44.300Z,6.57
2022-08-19T17:28:42.465Z,6.77
2022-08-19T17:33:42.310Z,6.00
2022-08-19T17:38:40.887Z,7.37
2022-08-19T17:43:42.829Z,6.53
2022-08-19T17:48:43.346Z,6.60
2022-08-19T17:53:41.455Z,6.70
2022-08-19T17:58:41.498Z,7.03
2022-08-19T18:03:42.556Z,6.90
2022-08-19T18:08:40.924Z,8.00
2022-08-19T18:13:40.606Z,7.30
2022-08-19T18:18:39.547Z,8.10
2022-08-19T18:23:44.336Z,8.77
2022-08-19T18:28:49.973Z,9.10
2022-08-19T18:33:52.572Z,9.37
2022-08-19T18:39:09.456Z,10.50
2022-08-19T18:44:28.508Z,14.67
2022-08-19T18:49:29.108Z,18.83
2022-08-19T18:54:28.830Z,18.03
2022-08-19T18:59:28.419Z,17.57
2022-08-19T19:04:29.551Z,18.07
2022-08-19T19:09:29.652Z,17.90
2022-08-19T19:14:48.201Z,18.50
2022-08-19T19:19:47.374Z,20.13
2022-08-19T19:24:50.714Z,18.30
2022-08-19T19:29:52.269Z,20.57
2022-08-19T19:34:50.815Z,17.77
2022-08-19T19:39:50.518Z,20.00
2022-08-19T19:44:50.455Z,21.97
2022-08-19T19:55:18.421Z,16.40
2022-08-19T20:00:18.770Z,17.63
2022-08-19T20:05:17.045Z,15.63
2022-08-19T20:10:16.588Z,15.43
2022-08-19T20:15:15.435Z,17.10
2022-08-19T20:20:15.333Z,16.90
2022-08-19T20:25:15.367Z,16.23
2022-08-19T20:30:19.330Z,14.50
2022-08-19T20:35:21.407Z,14.70
2022-08-19T20:40:19.585Z,15.37
2022-08-19T20:45:32.710Z,14.77
2022-08-19T20:50:32.202Z,13.00
2022-08-19T20:55:30.561Z,13.50
2022-08-19T21:00:30.519Z,13.90
2022-08-19T21:05:30.524Z,14.20
2022-08-19T21:10:28.918Z,14.03
2022-08-19T21:15:27.096Z,15.73
2022-08-19T21:20:26.515Z,15.23
2022-08-19T21:25:24.790Z,14.37
2022-08-19T21:30:23.050Z,13.83
2022-08-19T21:35:21.626Z,14.43
2022-08-19T21:40:21.467Z,13.70
2022-08-19T21:45:21.141Z,13.33
2022-08-19T21:50:19.807Z,13.10
2022-08-19T21:55:18.014Z,14.23
2022-08-19T22:00:20.991Z,14.33
2022-08-19T22:05:22.885Z,12.90
2022-08-19T22:10:22.199Z,12.80
2022-08-19T22:15:22.197Z,12.87
2022-08-19T22:20:23.532Z,13.00
2022-08-19T22:25:31.704Z,13.13
2022-08-19T22:30:33.286Z,12.60
2022-08-19T22:35:34.418Z,11.23
2022-08-19T22:40:32.612Z,12.20
2022-08-19T22:45:33.360Z,12.77
2022-08-19T22:50:31.433Z,12.60
2022-08-19T22:55:31.109Z,11.70
2022-08-19T23:00:31.613Z,13.20
2022-08-19T23:05:31.117Z,12.70
2022-08-19T23:10:29.844Z,13.83
2022-08-19T23:15:30.300Z,15.37
2022-08-19T23:20:33.187Z,14.07
2022-08-19T23:25:33.246Z,15.70
2022-08-19T23:30:34.228Z,17.03
2022-08-19T23:35:38.267Z,15.40
2022-08-19T23:40:38.521Z,14.37
2022-08-19T23:45:39.247Z,14.90
2022-08-19T23:50:41.061Z,14.97
2022-08-19T23:55:41.454Z,14.27
